createdAt,value
2023-03-29T00:00:14.600Z,63.45
2023-03-29T00:03:17.015Z,64.25
2023-03-29T00:06:22.448Z,63.65
2023-03-29T00:09:26.781Z,63.39
2023-03-29T00:12:28.960Z,63.76
2023-03-29T00:15:30.664Z,64.40
2023-03-29T00:18:32.313Z,64.58
2023-03-29T00:21:33.952Z,64.72
2023-03-29T00:24:36.206Z,65.23
2023-03-29T00:27:38.467Z,65.34
2023-03-29T00:30:40.228Z,65.48
2023-03-29T00:33:42.343Z,65.09
2023-03-29T00:36:44.109Z,65.11
2023-03-29T00:39:46.856Z,66.59
2023-03-29T00:42:48.719Z,67.44
2023-03-29T00:45:50.713Z,68.08
2023-03-29T00:48:55.019Z,68.65
2023-03-29T00:51:57.278Z,69.18
2023-03-29T00:55:06.336Z,70.49
2023-03-29T00:58:13.040Z,71.22
2023-03-29T01:01:19.627Z,71.88
2023-03-29T01:04:29.428Z,72.32
2023-03-29T01:07:35.241Z,71.99
2023-03-29T01:10:47.724Z,73.37
2023-03-29T01:13:52.028Z,74.38
2023-03-29T01:16:54.681Z,74.55
2023-03-29T01:20:07.945Z,74.85
2023-03-29T01:23:31.469Z,75.15
2023-03-29T01:26:55.231Z,75.66
2023-03-29T01:30:05.606Z,76.56
2023-03-29T01:33:15.326Z,77.59
2023-03-29T01:36:27.143Z,78.65
2023-03-29T01:39:28.863Z,79.69
2023-03-29T01:42:46.704Z,80.28
2023-03-29T01:46:00.495Z,80.44
2023-03-29T01:49:14.669Z,79.85
2023-03-29T01:52:32.245Z,79.58
2023-03-29T01:55:38.422Z,79.47
2023-03-29T01:58:45.185Z,79.43
2023-03-29T02:01:51.772Z,79.38
2023-03-29T02:04:56.172Z,78.89
2023-03-29T02:08:03.777Z,79.54
2023-03-29T02:11:05.548Z,80.33
2023-03-29T02:14:07.550Z,80.68
2023-03-29T02:17:20.128Z,81.63
2023-03-29T02:20:39.002Z,81.71
2023-03-29T02:23:45.525Z,82.50
2023-03-29T02:26:48.506Z,82.06
2023-03-29T02:29:50.621Z,82.20
2023-03-29T02:33:02.248Z,82.74
2023-03-29T02:36:27.491Z,83.26
2023-03-29T02:39:32.261Z,83.69
2023-03-29T02:42:35.352Z,82.98
2023-03-29T02:45:39.029Z,83.05
2023-03-29T02:48:41.222Z,83.33
2023-03-29T02:51:44.209Z,84.16
2023-03-29T02:54:48.985Z,84.52
2023-03-29T02:57:50.727Z,84.14
2023-03-29T03:00:52.626Z,84.00
2023-03-29T03:03:54.370Z,83.59
2023-03-29T03:06:56.147Z,83.47
2023-03-29T03:09:57.828Z,83.47
2023-03-29T03:12:59.479Z,82.60
2023-03-29T03:16:01.327Z,81.96
2023-03-29T03:19:03.910Z,82.06
2023-03-29T03:22:06.158Z,81.88
2023-03-29T03:25:10.390Z,82.09
2023-03-29T03:28:12.531Z,82.87
2023-03-29T03:31:14.698Z,82.81
2023-03-29T03:34:16.397Z,83.08
2023-03-29T03:37:18.212Z,82.33
2023-03-29T03:40:20.886Z,82.50
2023-03-29T03:43:22.845Z,82.22
2023-03-29T03:46:24.901Z,82.89
2023-03-29T03:49:26.949Z,82.54
2023-03-29T03:52:28.581Z,81.62
2023-03-29T03:55:32.445Z,81.59
2023-03-29T03:58:37.332Z,81.03
2023-03-29T04:01:43.487Z,79.59
2023-03-29T04:04:45.182Z,80.57
2023-03-29T04:07:47.046Z,78.77
2023-03-29T04:11:13.819Z,78.07
2023-03-29T04:14:15.466Z,78.42
2023-03-29T04:17:17.234Z,79.41
2023-03-29T04:20:18.895Z,79.99
2023-03-29T04:23:20.546Z,80.29
2023-03-29T04:26:22.993Z,79.68
2023-03-29T04:29:24.741Z,79.88
2023-03-29T04:32:26.700Z,80.35
2023-03-29T04:35:28.403Z,80.50
2023-03-29T04:38:30.193Z,80.44
2023-03-29T04:41:32.693Z,80.19
2023-03-29T04:44:35.099Z,79.21
2023-03-29T04:47:39.687Z,78.13
2023-03-29T04:50:41.581Z,76.76
2023-03-29T04:53:43.225Z,76.23
2023-03-29T04:56:44.854Z,76.18
2023-03-29T04:59:46.499Z,76.27
2023-03-29T05:02:48.268Z,75.68
2023-03-29T05:05:50.653Z,75.03
2023-03-29T05:08:52.385Z,73.36
2023-03-29T05:11:54.111Z,70.19
2023-03-29T05:14:55.746Z,69.97
2023-03-29T05:17:58.983Z,69.90
2023-03-29T05:21:01.067Z,68.09
2023-03-29T05:24:03.051Z,66.95
2023-03-29T05:27:05.080Z,65.37
2023-03-29T05:30:07.385Z,65.46
2023-03-29T05:33:09.199Z,65.90
2023-03-29T05:36:16.166Z,66.17
2023-03-29T05:39:17.990Z,66.46
2023-03-29T05:42:22.468Z,65.04
2023-03-29T05:45:24.765Z,65.38
2023-03-29T05:48:27.316Z,65.12
2023-03-29T05:51:29.002Z,63.90
2023-03-29T05:54:30.737Z,65.14
2023-03-29T05:57:32.562Z,64.44
2023-03-29T06:00:36.994Z,64.37
2023-03-29T06:03:38.865Z,63.46
2023-03-29T06:06:41.807Z,60.91
2023-03-29T06:09:44.747Z,59.71
2023-03-29T06:12:49.586Z,60.61
2023-03-29T06:15:51.218Z,61.17
2023-03-29T06:18:53.322Z,61.58
2023-03-29T06:21:55.075Z,61.70
2023-03-29T06:24:56.717Z,60.72
2023-03-29T06:27:58.346Z,59.49
2023-03-29T06:31:03.095Z,61.26
2023-03-29T06:34:06.017Z,62.14
2023-03-29T06:37:08.565Z,63.17
2023-03-29T06:40:10.678Z,64.02
2023-03-29T06:43:12.981Z,64.22
2023-03-29T06:46:15.093Z,64.83
2023-03-29T06:49:16.851Z,63.33
2023-03-29T06:52:18.465Z,64.53
2023-03-29T06:55:21.798Z,62.29
2023-03-29T06:58:23.421Z,62.78
2023-03-29T07:01:25.170Z,58.50
2023-03-29T07:04:26.955Z,55.31
2023-03-29T07:07:37.519Z,51.34
2023-03-29T07:10:42.016Z,46.98
2023-03-29T07:13:43.974Z,47.21
2023-03-29T07:16:47.262Z,44.83
2023-03-29T07:19:49.361Z,43.03
2023-03-29T07:22:51.564Z,40.78
2023-03-29T07:25:54.168Z,41.00
2023-03-29T07:28:56.298Z,38.06
2023-03-29T07:31:58.018Z,39.25
2023-03-29T07:34:59.677Z,37.75
2023-03-29T07:38:01.323Z,38.55
2023-03-29T07:41:05.141Z,40.63
2023-03-29T07:44:09.446Z,42.60
2023-03-29T07:47:11.129Z,43.91
2023-03-29T07:50:13.636Z,40.65
2023-03-29T07:53:15.961Z,42.17
2023-03-29T07:56:17.764Z,41.32
2023-03-29T07:59:19.508Z,40.17
2023-03-29T08:02:21.492Z,42.20
2023-03-29T08:05:37.731Z,41.08
2023-03-29T08:08:42.259Z,41.41
2023-03-29T08:11:43.914Z,41.02
2023-03-29T08:14:46.285Z,40.70
2023-03-29T08:17:47.997Z,38.76
2023-03-29T08:20:51.082Z,36.95
2023-03-29T08:23:52.744Z,34.24
2023-03-29T08:26:54.461Z,32.11
2023-03-29T08:29:56.460Z,30.82
2023-03-29T08:32:58.214Z,26.92
2023-03-29T08:35:59.988Z,22.73
2023-03-29T08:39:03.164Z,20.74
2023-03-29T08:42:17.161Z,20.97
2023-03-29T08:45:37.156Z,21.25
2023-03-29T08:48:42.522Z,22.06
2023-03-29T08:51:52.930Z,22.47
2023-03-29T08:54:56.958Z,21.69
2023-03-29T08:58:00.137Z,20.61
2023-03-29T09:01:06.123Z,19.83
2023-03-29T09:04:17.399Z,19.47
2023-03-29T09:07:19.151Z,19.79
2023-03-29T09:10:28.047Z,20.26
2023-03-29T09:13:58.845Z,16.75
2023-03-29T09:17:19.485Z,19.80
2023-03-29T09:20:42.330Z,19.56
2023-03-29T09:24:13.674Z,21.99
2023-03-29T09:27:27.364Z,23.68
2023-03-29T09:30:31.960Z,24.83
2023-03-29T09:33:50.488Z,22.40
2023-03-29T09:37:03.282Z,19.00
2023-03-29T09:40:12.553Z,19.50
2023-03-29T09:43:18.478Z,19.11
2023-03-29T09:46:29.131Z,17.70
2023-03-29T09:49:36.196Z,16.49
2023-03-29T09:52:38.033Z,15.85
2023-03-29T09:55:40.895Z,16.29
2023-03-29T09:58:44.275Z,18.57
2023-03-29T10:01:46.168Z,19.90
2023-03-29T10:04:55.515Z,22.11
2023-03-29T10:08:01.177Z,25.64
2023-03-29T10:11:20.234Z,25.27
2023-03-29T10:14:37.164Z,27.30
2023-03-29T10:17:41.084Z,27.36
2023-03-29T10:20:42.733Z,28.26
2023-03-29T10:23:44.602Z,27.06
2023-03-29T10:26:47.178Z,29.04
2023-03-29T10:29:49.777Z,29.37
2023-03-29T10:32:58.106Z,27.33
2023-03-29T10:36:02.956Z,28.26
2023-03-29T10:39:06.338Z,30.41
2023-03-29T10:42:14.829Z,30.51
2023-03-29T10:45:29.051Z,29.79
2023-03-29T10:48:31.844Z,30.52
2023-03-29T10:51:34.572Z,31.29
2023-03-29T10:54:36.804Z,31.07
2023-03-29T10:57:54.126Z,31.16
2023-03-29T11:00:57.114Z,31.14
2023-03-29T11:04:13.114Z,32.38
2023-03-29T11:07:17.790Z,33.52
2023-03-29T11:10:42.462Z,32.80
2023-03-29T11:13:49.841Z,33.00
2023-03-29T11:16:57.539Z,33.92
2023-03-29T11:20:17.617Z,33.35
2023-03-29T11:23:31.124Z,32.01
2023-03-29T11:26:38.956Z,32.89
2023-03-29T11:29:53.454Z,31.71
2023-03-29T11:33:16.496Z,32.48
2023-03-29T11:36:42.859Z,32.43
2023-03-29T11:40:10.981Z,31.63
2023-03-29T11:43:42.845Z,32.59
2023-03-29T11:47:07.287Z,32.82
2023-03-29T11:50:18.555Z,31.04
2023-03-29T11:53:31.196Z,31.40
2023-03-29T11:56:49.404Z,31.56
2023-03-29T12:00:01.991Z,31.55
2023-03-29T12:03:10.889Z,31.36
2023-03-29T12:06:27.490Z,30.75
2023-03-29T12:09:39.735Z,29.55
2023-03-29T12:13:03.434Z,30.99
2023-03-29T12:16:46.064Z,30.45
2023-03-29T12:20:00.792Z,30.75
2023-03-29T12:23:02.840Z,31.60
2023-03-29T12:26:08.586Z,30.66
2023-03-29T12:29:31.295Z,31.09
2023-03-29T12:33:09.012Z,29.75
2023-03-29T12:36:19.114Z,29.30
2023-03-29T12:39:21.163Z,29.75
2023-03-29T12:42:24.234Z,29.80
2023-03-29T12:45:33.288Z,30.97
2023-03-29T12:48:38.971Z,30.60
2023-03-29T12:51:42.807Z,30.67
2023-03-29T12:54:57.369Z,30.89
2023-03-29T12:58:06.136Z,30.47
2023-03-29T13:01:23.400Z,30.81
2023-03-29T13:04:37.579Z,29.99
2023-03-29T13:07:49.772Z,29.71
2023-03-29T13:10:56.154Z,29.28
2023-03-29T13:14:01.645Z,29.14
2023-03-29T13:17:17.712Z,28.57
2023-03-29T13:20:32.325Z,25.04
2023-03-29T13:23:55.175Z,23.50
2023-03-29T13:27:43.206Z,24.96
2023-03-29T13:31:05.285Z,26.65
2023-03-29T13:34:21.153Z,28.81
2023-03-29T13:37:44.499Z,28.20
2023-03-29T13:41:11.864Z,28.57
2023-03-29T13:44:22.304Z,27.55
2023-03-29T13:47:33.152Z,28.18
2023-03-29T13:50:40.603Z,27.34
2023-03-29T13:53:51.793Z,26.60
2023-03-29T13:57:01.494Z,27.54
2023-03-29T14:00:22.231Z,27.33
2023-03-29T14:03:29.798Z,30.35
2023-03-29T14:06:35.017Z,30.77
2023-03-29T14:09:42.579Z,31.31
2023-03-29T14:12:45.663Z,31.83
2023-03-29T14:15:57.303Z,31.14
2023-03-29T14:19:02.306Z,32.45
2023-03-29T14:22:10.853Z,32.55
2023-03-29T14:25:17.198Z,33.01
2023-03-29T14:28:27.137Z,34.18
2023-03-29T14:31:34.393Z,34.61
2023-03-29T14:34:36.248Z,34.31
2023-03-29T14:37:38.718Z,34.00
2023-03-29T14:40:40.689Z,34.38
2023-03-29T14:43:42.609Z,33.81
2023-03-29T14:46:46.839Z,34.86
2023-03-29T14:49:49.088Z,35.29
2023-03-29T14:52:52.410Z,34.65
2023-03-29T14:55:56.113Z,36.28
2023-03-29T14:58:57.763Z,36.21
2023-03-29T15:01:59.456Z,35.54
2023-03-29T15:05:25.611Z,35.38
2023-03-29T15:08:38.600Z,35.38
2023-03-29T15:11:40.813Z,36.20
2023-03-29T15:14:42.621Z,36.44
2023-03-29T15:17:52.146Z,37.06
2023-03-29T15:20:54.634Z,36.93
2023-03-29T15:23:58.516Z,37.40
2023-03-29T15:27:11.247Z,37.95
2023-03-29T15:30:15.524Z,37.61
2023-03-29T15:33:23.166Z,37.61
2023-03-29T15:36:25.010Z,37.52
2023-03-29T15:39:28.037Z,37.45
2023-03-29T15:42:29.782Z,37.03
2023-03-29T15:45:31.422Z,37.89
2023-03-29T15:48:33.895Z,38.57
2023-03-29T15:51:35.656Z,39.45
2023-03-29T15:54:37.378Z,39.11
2023-03-29T15:57:39.213Z,39.18
2023-03-29T16:00:44.708Z,39.95
2023-03-29T16:03:48.091Z,39.71
2023-03-29T16:06:55.341Z,39.82
2023-03-29T16:09:57.813Z,41.03
2023-03-29T16:12:59.540Z,41.87
2023-03-29T16:16:01.966Z,42.65
2023-03-29T16:19:03.818Z,43.80
2023-03-29T16:22:07.390Z,44.84
2023-03-29T16:25:15.974Z,44.56
2023-03-29T16:28:17.626Z,44.63
2023-03-29T16:31:19.349Z,44.99
2023-03-29T16:34:22.782Z,45.60
2023-03-29T16:37:24.500Z,46.81
2023-03-29T16:40:26.704Z,45.85
2023-03-29T16:43:28.842Z,46.81
2023-03-29T16:46:30.872Z,48.50
2023-03-29T16:49:32.640Z,49.15
2023-03-29T16:52:34.416Z,49.57
2023-03-29T16:55:38.037Z,49.29
2023-03-29T16:58:39.963Z,52.06
2023-03-29T17:01:42.031Z,51.58
2023-03-29T17:04:43.985Z,51.77
2023-03-29T17:07:46.182Z,52.32
2023-03-29T17:10:55.696Z,52.14
2023-03-29T17:13:57.428Z,52.93
2023-03-29T17:16:59.098Z,53.18
2023-03-29T17:20:01.346Z,51.72
2023-03-29T17:23:03.277Z,53.13
2023-03-29T17:26:07.033Z,54.56
2023-03-29T17:29:08.765Z,53.39
2023-03-29T17:32:10.640Z,53.48
2023-03-29T17:35:13.422Z,54.02
2023-03-29T17:38:15.142Z,54.76
2023-03-29T17:41:19.181Z,55.24
2023-03-29T17:44:21.126Z,56.52
2023-03-29T17:47:22.760Z,57.40
2023-03-29T17:50:24.776Z,58.34
2023-03-29T17:53:27.314Z,57.57
2023-03-29T17:56:29.162Z,59.18
2023-03-29T17:59:31.654Z,59.23
2023-03-29T18:02:35.374Z,58.72
2023-03-29T18:05:37.797Z,59.47
2023-03-29T18:08:40.718Z,60.04
2023-03-29T18:11:42.772Z,59.54
2023-03-29T18:14:44.844Z,59.43
2023-03-29T18:17:47.657Z,59.47
2023-03-29T18:20:49.949Z,60.39
2023-03-29T18:23:54.340Z,59.17
2023-03-29T18:26:58.654Z,60.17
2023-03-29T18:30:01.949Z,60.38
2023-03-29T18:33:04.128Z,61.15
2023-03-29T18:36:10.812Z,61.29
2023-03-29T18:39:15.256Z,61.46
2023-03-29T18:42:19.008Z,60.97
2023-03-29T18:45:22.721Z,60.79
2023-03-29T18:48:25.118Z,60.21
2023-03-29T18:51:28.727Z,59.73
2023-03-29T18:54:31.556Z,59.50
2023-03-29T18:57:34.254Z,60.26
2023-03-29T19:00:38.128Z,62.72
2023-03-29T19:03:43.161Z,63.89
2023-03-29T19:06:46.572Z,63.60
2023-03-29T19:09:51.700Z,63.55
2023-03-29T19:12:54.294Z,63.68
2023-03-29T19:15:56.954Z,63.96
2023-03-29T19:19:00.380Z,63.75
2023-03-29T19:22:03.374Z,63.37
2023-03-29T19:25:09.118Z,62.37
2023-03-29T19:28:12.121Z,63.50
2023-03-29T19:31:14.719Z,63.48
2023-03-29T19:34:20.167Z,64.15
2023-03-29T19:37:23.047Z,64.98
2023-03-29T19:40:25.717Z,64.96
2023-03-29T19:43:27.721Z,64.94
2023-03-29T19:46:29.715Z,66.58
2023-03-29T19:49:34.012Z,66.41
2023-03-29T19:52:36.113Z,66.59
2023-03-29T19:55:39.707Z,65.02
2023-03-29T19:58:42.064Z,64.91
2023-03-29T20:01:50.985Z,66.09
2023-03-29T20:04:53.581Z,65.87
2023-03-29T20:07:55.627Z,66.25
2023-03-29T20:11:10.457Z,66.54
2023-03-29T20:14:12.974Z,66.51
2023-03-29T20:17:16.612Z,66.60
2023-03-29T20:20:18.761Z,67.19
2023-03-29T20:23:20.660Z,67.58
2023-03-29T20:26:24.296Z,68.29
2023-03-29T20:29:26.074Z,69.99
2023-03-29T20:32:30.203Z,68.72
2023-03-29T20:35:31.942Z,68.38
2023-03-29T20:38:33.678Z,70.71
2023-03-29T20:41:38.421Z,69.70
2023-03-29T20:44:40.233Z,69.23
2023-03-29T20:47:42.582Z,68.84
2023-03-29T20:50:48.388Z,69.91
2023-03-29T20:53:50.732Z,70.85
2023-03-29T20:56:54.745Z,72.02
2023-03-29T20:59:56.528Z,72.47
2023-03-29T21:03:01.322Z,71.22
2023-03-29T21:06:03.632Z,71.62
2023-03-29T21:09:06.108Z,70.93
2023-03-29T21:12:07.966Z,71.41
2023-03-29T21:15:10.626Z,70.10
2023-03-29T21:18:12.322Z,69.56
2023-03-29T21:21:14.100Z,69.61
2023-03-29T21:24:15.815Z,69.73
2023-03-29T21:27:18.441Z,70.26
2023-03-29T21:30:20.124Z,70.32
2023-03-29T21:33:21.824Z,70.85
2023-03-29T21:36:24.129Z,70.06
2023-03-29T21:39:26.874Z,69.48
2023-03-29T21:42:28.510Z,69.65
2023-03-29T21:45:30.626Z,70.50
2023-03-29T21:48:32.392Z,70.85
2023-03-29T21:51:34.051Z,71.29
2023-03-29T21:54:36.132Z,71.88
2023-03-29T21:57:37.968Z,71.12
2023-03-29T22:00:39.636Z,70.78
2023-03-29T22:03:41.341Z,71.50
2023-03-29T22:06:43.046Z,71.57
2023-03-29T22:09:46.549Z,71.58
2023-03-29T22:12:49.088Z,69.79
2023-03-29T22:16:03.756Z,69.62
2023-03-29T22:19:06.344Z,70.92
2023-03-29T22:22:13.728Z,71.09
2023-03-29T22:25:19.458Z,70.33
2023-03-29T22:28:21.146Z,69.87
2023-03-29T22:31:24.331Z,69.83
2023-03-29T22:34:26.589Z,68.50
2023-03-29T22:37:28.671Z,69.09
2023-03-29T22:40:33.238Z,68.69
2023-03-29T22:43:36.514Z,70.19
2023-03-29T22:46:38.407Z,69.25
2023-03-29T22:49:40.209Z,69.52
2023-03-29T22:52:41.863Z,69.66
2023-03-29T22:55:44.246Z,67.72
2023-03-29T22:58:46.277Z,72.29
2023-03-29T23:01:48.484Z,70.59
2023-03-29T23:04:50.217Z,70.04
2023-03-29T23:07:51.997Z,69.79
2023-03-29T23:10:53.597Z,68.52
2023-03-29T23:13:55.291Z,68.61
2023-03-29T23:16:56.963Z,67.89
2023-03-29T23:19:59.315Z,66.97
2023-03-29T23:23:01.423Z,66.84
2023-03-29T23:26:03.998Z,65.73
2023-03-29T23:29:05.712Z,65.47
2023-03-29T23:32:07.439Z,67.27
2023-03-29T23:35:09.321Z,67.21
2023-03-29T23:38:10.926Z,67.12
2023-03-29T23:41:13.390Z,67.96
2023-03-29T23:44:15.227Z,66.95
2023-03-29T23:47:16.859Z,68.06
2023-03-29T23:50:18.705Z,68.14
2023-03-29T23:53:21.047Z,68.74
2023-03-29T23:56:23.061Z,69.49
2023-03-29T23:59:29.876Z,68.45
